Buoy 62726

sailwx.info

Track history (hours):
 
Tides and Currents Weather Stations Pressure Air Temp Water Temp Dewpoint Dewpoint Depression Visibility Wind Speed Wind Dir Waves Ship Positions

Drifting buoy 62726

Last reported at 2015-Mar-31 05:00 UTC. Time now 2015-Mar-31 16:56 UTC.
Position N 38°25' W 018°49'.

Water temperature 16.0 ° C

Date/timePositionNaut miles runAvg speedWind from/ knotsBaromVisibWave heightAir tempDewpointWater temp
2015-Mar-31 05:00N 38°25' W 018°49'0 0.0 16.0
2015-Mar-31 04:00N 38°25' W 018°49'2 0.4 16.0
2015-Mar-30 23:00N 38°23' W 018°49'2 1.0 16.1
2015-Mar-30 21:00N 38°21' W 018°48'0 0.1 16.2
2015-Mar-30 18:00N 38°21' W 018°48'1 0.4 16.3
2015-Mar-30 15:00N 38°21' W 018°46'1 0.3 16.4
2015-Mar-30 13:00N 38°20' W 018°46'0 0.0 16.1
2015-Mar-30 12:00N 38°20' W 018°46'2 1.7 16.0
2015-Mar-30 11:00N 38°19' W 018°46'0 0.0 16.0
2015-Mar-30 08:00N 38°19' W 018°46'0 0.0 15.9
2015-Mar-30 07:00N 38°19' W 018°46'5 2.4 16.0
2015-Mar-30 05:00N 38°16' W 018°41'0 0.0 16.0
2015-Mar-30 03:00N 38°16' W 018°41'0 0.0 16.0
2015-Mar-30 01:00N 38°16' W 018°41'1 0.4 16.1
2015-Mar-29 22:00N 38°16' W 018°42'1 0.6 16.0
2015-Mar-29 21:00N 38°16' W 018°42'0 0.1 16.0
2015-Mar-29 19:00N 38°16' W 018°41'1 1.1 16.0
2015-Mar-29 18:00N 38°15' W 018°42'0 0.2 16.1
2015-Mar-29 17:00N 38°15' W 018°42'1 1.5 16.2
2015-Mar-29 16:00N 38°14' W 018°40'1 0.6 16.3
2015-Mar-29 14:00N 38°14' W 018°39'0 0.0 16.2
2015-Mar-29 13:00N 38°14' W 018°39'0 0.0 16.1
2015-Mar-29 12:00N 38°14' W 018°39'0 0.4 15.9
2015-Mar-29 11:00N 38°13' W 018°39'1 0.8 15.9
2015-Mar-29 10:00N 38°13' W 018°38'1 0.3 15.7
2015-Mar-29 07:00N 38°12' W 018°37'1 0.4 15.5
2015-Mar-29 05:00N 38°12' W 018°36'0 0.0 15.5
2015-Mar-29 04:00N 38°12' W 018°36'2 0.3 15.6
2015-Mar-28 22:00N 38°11' W 018°35'2 0.8 15.7
2015-Mar-28 20:00N 38°10' W 018°33'0 0.0 15.9
2015-Mar-28 17:00N 38°10' W 018°33'1 0.9 16.2
2015-Mar-28 16:00N 38°10' W 018°32'1 0.3 16.0
2015-Mar-28 14:00N 38°09' W 018°31'2 0.8 16.4
2015-Mar-28 12:00N 38°09' W 018°29'0 0.1 15.9
2015-Mar-28 11:00N 38°09' W 018°29'0 0.1 15.6
2015-Mar-28 10:00N 38°09' W 018°29'1 0.4 15.5
2015-Mar-28 08:00N 38°09' W 018°28'0 0.2 15.5
2015-Mar-28 07:00N 38°09' W 018°28'0 0.0 15.5
2015-Mar-28 06:00N 38°09' W 018°28'2 1.1 15.5
2015-Mar-28 04:00N 38°09' W 018°25'0 0.0 15.5
2015-Mar-28 02:00N 38°09' W 018°25'0 0.0 15.5
2015-Mar-28 00:00N 38°09' W 018°25'0 0.2 15.5
2015-Mar-27 22:00N 38°08' W 018°25'1 0.5 15.6
2015-Mar-27 21:00N 38°08' W 018°24'0 0.2 15.6
2015-Mar-27 20:00N 38°08' W 018°24'0 0.0 15.6
2015-Mar-27 19:00N 38°08' W 018°24'1 0.5 15.6
2015-Mar-27 17:00N 38°08' W 018°23'0 0.0 15.7
2015-Mar-27 16:00N 38°08' W 018°23'1 0.7 15.7
2015-Mar-27 14:00N 38°08' W 018°21'0 0.0 15.6
2015-Mar-27 13:00N 38°08' W 018°21'0 0.1 15.6
2015-Mar-27 11:00N 38°08' W 018°21'1 0.5 15.5
2015-Mar-27 09:00N 38°08' W 018°20'1 0.1 15.5
2015-Mar-27 04:00N 38°09' W 018°20'0 0.4 15.5
2015-Mar-27 03:00N 38°09' W 018°20'2 0.2 15.5
2015-Mar-26 13:00N 38°09' W 018°17'0 0.0 15.7
2015-Mar-26 04:00N 38°09' W 018°17'1 0.2 15.4
2015-Mar-25 20:00N 38°09' W 018°16'0 0.2 15.4
2015-Mar-25 19:00N 38°09' W 018°15'1 0.3 15.4
2015-Mar-25 17:00N 38°10' W 018°16'0 0.0 15.5
2015-Mar-25 16:00N 38°10' W 018°16'0 0.2 15.5
2015-Mar-25 15:00N 38°10' W 018°16'1 0.9 15.5
2015-Mar-25 14:00N 38°10' W 018°17'0 0.0 15.4
2015-Mar-25 12:00N 38°10' W 018°17'0 0.0 15.4
2015-Mar-25 11:00N 38°10' W 018°17'0 0.0 15.4
2015-Mar-25 08:00N 38°10' W 018°17'0 0.0 15.4
2015-Mar-25 05:00N 38°10' W 018°17'0 0.0 15.4
2015-Mar-25 04:00N 38°10' W 018°17'0 0.0 15.4
2015-Mar-25 03:00N 38°10' W 018°17'2 0.4 15.4
2015-Mar-24 21:00N 38°12' W 018°18'3 0.5 15.4
2015-Mar-24 15:00N 38°13' W 018°22'0 0.0 15.4
2015-Mar-24 14:00N 38°13' W 018°22'0 0.0 15.4
2015-Mar-24 07:00N 38°13' W 018°22'11 0.4 15.4
2015-Mar-23 06:00N 38°13' W 018°36'0 0.0 15.2
2015-Mar-23 05:00N 38°13' W 018°36'0 0.0 15.1
2015-Mar-23 01:00N 38°13' W 018°36'1 0.3 15.0
2015-Mar-22 22:00N 38°12' W 018°37'1 0.4 15.0
2015-Mar-22 20:00N 38°12' W 018°36'1 0.1 15.0
2015-Mar-22 11:00N 38°11' W 018°36'2 0.1 15.2
2015-Mar-21 22:00N 38°10' W 018°37'2 0.3 15.6
2015-Mar-21 16:00N 38°09' W 018°35'1 0.3 15.6
2015-Mar-21 13:00N 38°08' W 018°35'1 0.3 15.7
2015-Mar-21 08:00N 38°07' W 018°36'   15.6
Track history (hours):
 
Tides and Currents Weather Stations Pressure Air Temp Water Temp Dewpoint Dewpoint Depression Visibility Wind Speed Wind Dir Waves Ship Positions

Drifting buoy 62726

Last reported at 2015-Mar-31 05:00 UTC. Time now 2015-Mar-31 16:56 UTC.
Position N 38°25' W 018°49'.

Water temperature 16.0 ° C

Date/timePositionNaut miles runAvg speedWind from/ knotsBaromVisibWave heightAir tempDewpointWater temp
2015-Mar-31 05:00N 38°25' W 018°49'0 0.0 16.0
2015-Mar-31 04:00N 38°25' W 018°49'2 0.4 16.0
2015-Mar-30 23:00N 38°23' W 018°49'2 1.0 16.1
2015-Mar-30 21:00N 38°21' W 018°48'0 0.1 16.2
2015-Mar-30 18:00N 38°21' W 018°48'1 0.4 16.3
2015-Mar-30 15:00N 38°21' W 018°46'1 0.3 16.4
2015-Mar-30 13:00N 38°20' W 018°46'0 0.0 16.1
2015-Mar-30 12:00N 38°20' W 018°46'2 1.7 16.0
2015-Mar-30 11:00N 38°19' W 018°46'0 0.0 16.0
2015-Mar-30 08:00N 38°19' W 018°46'0 0.0 15.9
2015-Mar-30 07:00N 38°19' W 018°46'5 2.4 16.0
2015-Mar-30 05:00N 38°16' W 018°41'0 0.0 16.0
2015-Mar-30 03:00N 38°16' W 018°41'0 0.0 16.0
2015-Mar-30 01:00N 38°16' W 018°41'1 0.4 16.1
2015-Mar-29 22:00N 38°16' W 018°42'1 0.6 16.0
2015-Mar-29 21:00N 38°16' W 018°42'0 0.1 16.0
2015-Mar-29 19:00N 38°16' W 018°41'1 1.1 16.0
2015-Mar-29 18:00N 38°15' W 018°42'0 0.2 16.1
2015-Mar-29 17:00N 38°15' W 018°42'1 1.5 16.2
2015-Mar-29 16:00N 38°14' W 018°40'1 0.6 16.3
2015-Mar-29 14:00N 38°14' W 018°39'0 0.0 16.2
2015-Mar-29 13:00N 38°14' W 018°39'0 0.0 16.1
2015-Mar-29 12:00N 38°14' W 018°39'0 0.4 15.9
2015-Mar-29 11:00N 38°13' W 018°39'1 0.8 15.9
2015-Mar-29 10:00N 38°13' W 018°38'1 0.3 15.7
2015-Mar-29 07:00N 38°12' W 018°37'1 0.4 15.5
2015-Mar-29 05:00N 38°12' W 018°36'0 0.0 15.5
2015-Mar-29 04:00N 38°12' W 018°36'2 0.3 15.6
2015-Mar-28 22:00N 38°11' W 018°35'2 0.8 15.7
2015-Mar-28 20:00N 38°10' W 018°33'0 0.0 15.9
2015-Mar-28 17:00N 38°10' W 018°33'1 0.9 16.2
2015-Mar-28 16:00N 38°10' W 018°32'1 0.3 16.0
2015-Mar-28 14:00N 38°09' W 018°31'2 0.8 16.4
2015-Mar-28 12:00N 38°09' W 018°29'0 0.1 15.9
2015-Mar-28 11:00N 38°09' W 018°29'0 0.1 15.6
2015-Mar-28 10:00N 38°09' W 018°29'1 0.4 15.5
2015-Mar-28 08:00N 38°09' W 018°28'0 0.2 15.5
2015-Mar-28 07:00N 38°09' W 018°28'0 0.0 15.5
2015-Mar-28 06:00N 38°09' W 018°28'2 1.1 15.5
2015-Mar-28 04:00N 38°09' W 018°25'0 0.0 15.5
2015-Mar-28 02:00N 38°09' W 018°25'0 0.0 15.5
2015-Mar-28 00:00N 38°09' W 018°25'0 0.2 15.5
2015-Mar-27 22:00N 38°08' W 018°25'1 0.5 15.6
2015-Mar-27 21:00N 38°08' W 018°24'0 0.2 15.6
2015-Mar-27 20:00N 38°08' W 018°24'0 0.0 15.6
2015-Mar-27 19:00N 38°08' W 018°24'1 0.5 15.6
2015-Mar-27 17:00N 38°08' W 018°23'0 0.0 15.7
2015-Mar-27 16:00N 38°08' W 018°23'1 0.7 15.7
2015-Mar-27 14:00N 38°08' W 018°21'0 0.0 15.6
2015-Mar-27 13:00N 38°08' W 018°21'0 0.1 15.6
2015-Mar-27 11:00N 38°08' W 018°21'1 0.5 15.5
2015-Mar-27 09:00N 38°08' W 018°20'1 0.1 15.5
2015-Mar-27 04:00N 38°09' W 018°20'0 0.4 15.5
2015-Mar-27 03:00N 38°09' W 018°20'2 0.2 15.5
2015-Mar-26 13:00N 38°09' W 018°17'0 0.0 15.7
2015-Mar-26 04:00N 38°09' W 018°17'1 0.2 15.4
2015-Mar-25 20:00N 38°09' W 018°16'0 0.2 15.4
2015-Mar-25 19:00N 38°09' W 018°15'1 0.3 15.4
2015-Mar-25 17:00N 38°10' W 018°16'0 0.0 15.5
2015-Mar-25 16:00N 38°10' W 018°16'0 0.2 15.5
2015-Mar-25 15:00N 38°10' W 018°16'1 0.9 15.5
2015-Mar-25 14:00N 38°10' W 018°17'0 0.0 15.4
2015-Mar-25 12:00N 38°10' W 018°17'0 0.0 15.4
2015-Mar-25 11:00N 38°10' W 018°17'0 0.0 15.4
2015-Mar-25 08:00N 38°10' W 018°17'0 0.0 15.4
2015-Mar-25 05:00N 38°10' W 018°17'0 0.0 15.4
2015-Mar-25 04:00N 38°10' W 018°17'0 0.0 15.4
2015-Mar-25 03:00N 38°10' W 018°17'2 0.4 15.4
2015-Mar-24 21:00N 38°12' W 018°18'3 0.5 15.4
2015-Mar-24 15:00N 38°13' W 018°22'0 0.0 15.4
2015-Mar-24 14:00N 38°13' W 018°22'0 0.0 15.4
2015-Mar-24 07:00N 38°13' W 018°22'11 0.4 15.4
2015-Mar-23 06:00N 38°13' W 018°36'0 0.0 15.2
2015-Mar-23 05:00N 38°13' W 018°36'0 0.0 15.1
2015-Mar-23 01:00N 38°13' W 018°36'1 0.3 15.0
2015-Mar-22 22:00N 38°12' W 018°37'1 0.4 15.0
2015-Mar-22 20:00N 38°12' W 018°36'1 0.1 15.0
2015-Mar-22 11:00N 38°11' W 018°36'2 0.1 15.2
2015-Mar-21 22:00N 38°10' W 018°37'2 0.3 15.6
2015-Mar-21 16:00N 38°09' W 018°35'1 0.3 15.6
2015-Mar-21 13:00N 38°08' W 018°35'1 0.3 15.7
2015-Mar-21 08:00N 38°07' W 018°36'   15.6

Dump ship's entire track history